Time;durP1;ratioP1;P1;durP2;ratioP2;P2;SDS_P1;SDS_P2;PMS_P1;PMS_P2;Temp;Humidity;BMP_temperature;BMP_pressure;BME280_temperature;BME280_humidity;BME280_pressure;Samples;Min_cycle;Max_cycle;Signal;HPM_P1;HPM_P2
2023/09/27 00:02:07;;;;;;;3.55;2.13;;;23.40;74.60;;;;;;6184482;23;20005;-79
2023/09/27 00:04:34;;;;;;;3.80;2.47;;;23.50;74.70;;;;;;6182484;23;20012;-78
2023/09/27 00:06:59;;;;;;;3.72;2.03;;;23.50;74.80;;;;;;6184494;23;20008;-78
2023/09/27 00:09:25;;;;;;;6.88;2.72;;;23.40;74.60;;;;;;6184769;23;20039;-79
2023/09/27 00:11:51;;;;;;;6.18;2.60;;;23.50;74.70;;;;;;6184698;23;20005;-78
2023/09/27 00:14:17;;;;;;;6.57;2.22;;;23.50;74.50;;;;;;6184730;23;20000;-78
2023/09/27 00:16:43;;;;;;;5.82;2.55;;;23.40;74.40;;;;;;6184115;23;20004;-79
2023/09/27 00:19:09;;;;;;;3.72;2.10;;;23.40;74.10;;;;;;6185077;23;20001;-78
2023/09/27 00:21:35;;;;;;;11.73;3.08;;;23.40;74.10;;;;;;6184515;23;20079;-79
2023/09/27 00:24:00;;;;;;;4.82;2.28;;;23.40;74.00;;;;;;6185747;23;19997;-79
2023/09/27 00:26:26;;;;;;;3.97;2.22;;;23.40;73.90;;;;;;6184230;23;20077;-79
2023/09/27 00:28:52;;;;;;;5.25;3.30;;;23.40;73.90;;;;;;6182870;23;20006;-78
2023/09/27 00:31:18;;;;;;;4.55;2.00;;;23.40;74.00;;;;;;6183796;23;20313;-78
2023/09/27 00:33:44;;;;;;;3.65;2.50;;;23.40;74.10;;;;;;6184433;23;19997;-78
2023/09/27 00:36:09;;;;;;;8.90;2.00;;;23.40;73.90;;;;;;6184076;23;20070;-78
2023/09/27 00:38:36;;;;;;;4.30;2.00;;;23.40;74.00;;;;;;6184757;23;20068;-78
2023/09/27 00:41:02;;;;;;;6.07;2.50;;;23.40;73.90;;;;;;6184748;23;20001;-78
2023/09/27 00:43:28;;;;;;;4.38;2.33;;;23.40;73.80;;;;;;6184870;23;20011;-78
2023/09/27 00:45:59;;;;;;;5.30;2.15;;;23.40;73.90;;;;;;6183569;23;20315;-78
2023/09/27 00:48:25;;;;;;;4.68;2.80;;;23.40;73.80;;;;;;6185011;23;20013;-78
2023/09/27 00:50:53;;;;;;;4.00;2.25;;;23.40;74.00;;;;;;6184366;23;20359;-78
2023/09/27 00:53:22;;;;;;;4.95;2.50;;;23.40;74.20;;;;;;6185022;23;20416;-78
2023/09/27 00:55:48;;;;;;;5.32;2.42;;;23.40;74.20;;;;;;6183698;23;20408;-78
2023/09/27 00:58:19;;;;;;;6.78;2.28;;;23.40;73.70;;;;;;6182095;23;20463;-78
2023/09/27 01:00:50;;;;;;;4.93;2.38;;;23.40;73.70;;;;;;6184080;23;20079;-77
2023/09/27 01:03:16;;;;;;;4.35;1.95;;;23.40;74.20;;;;;;6184505;23;20051;-77
2023/09/27 01:05:43;;;;;;;5.65;2.47;;;23.40;73.80;;;;;;6184875;23;20076;-77
2023/09/27 01:08:09;;;;;;;4.55;2.50;;;23.40;73.70;;;;;;6183713;23;20016;-78
2023/09/27 01:10:35;;;;;;;4.80;2.25;;;23.40;73.40;;;;;;6184920;23;20005;-79
2023/09/27 01:13:02;;;;;;;4.82;2.50;;;23.40;73.30;;;;;;6185971;23;20076;-78
2023/09/27 01:15:28;;;;;;;4.68;2.17;;;23.40;73.30;;;;;;6186867;23;20414;-78
2023/09/27 01:17:59;;;;;;;5.50;2.70;;;23.40;73.00;;;;;;6185060;23;20024;-77
2023/09/27 01:20:27;;;;;;;4.20;2.10;;;23.40;73.10;;;;;;6186328;23;20066;-78
2023/09/27 01:23:03;;;;;;;2.97;2.20;;;23.40;73.00;;;;;;6185830;23;20415;-77
2023/09/27 01:25:34;;;;;;;4.18;2.35;;;23.40;73.30;;;;;;6186520;23;20372;-77
2023/09/27 01:28:01;;;;;;;2.75;2.00;;;23.40;73.20;;;;;;6185811;23;20328;-77
2023/09/27 01:30:33;;;;;;;3.17;2.10;;;23.40;73.00;;;;;;6186391;23;20009;-77
2023/09/27 01:33:06;;;;;;;4.03;2.33;;;23.40;73.30;;;;;;6186555;23;20037;-77
2023/09/27 01:35:34;;;;;;;4.93;2.50;;;23.40;73.50;;;;;;6186614;23;20324;-77
2023/09/27 01:38:00;;;;;;;5.53;2.53;;;23.40;73.50;;;;;;6184999;23;19998;-77
2023/09/27 01:40:35;;;;;;;2.88;2.10;;;23.30;73.50;;;;;;6186607;23;20016;-77
2023/09/27 01:43:02;;;;;;;3.90;2.33;;;23.30;73.40;;;;;;6186726;23;20059;-77
2023/09/27 01:45:29;;;;;;;7.25;2.70;;;23.30;73.20;;;;;;6181876;23;20005;-76
2023/09/27 01:47:55;;;;;;;7.65;2.42;;;23.30;73.10;;;;;;6185779;23;20008;-76
2023/09/27 01:50:25;;;;;;;3.08;2.17;;;23.30;73.10;;;;;;6186404;23;20023;-77
2023/09/27 01:52:57;;;;;;;4.53;2.50;;;23.20;72.90;;;;;;6184708;23;20013;-77
2023/09/27 01:55:23;;;;;;;5.53;2.47;;;23.20;72.90;;;;;;6185695;23;20001;-77
2023/09/27 01:57:49;;;;;;;3.25;2.28;;;23.20;72.80;;;;;;6184919;23;20002;-77
2023/09/27 02:00:18;;;;;;;2.78;2.33;;;23.20;72.80;;;;;;6186259;23;20001;-77
2023/09/27 02:02:44;;;;;;;4.35;2.38;;;23.20;72.60;;;;;;6185816;23;20438;-77
2023/09/27 02:05:11;;;;;;;3.00;2.60;;;23.20;72.60;;;;;;6186186;23;20063;-77
2023/09/27 02:07:41;;;;;;;2.80;1.95;;;23.20;72.50;;;;;;6185300;23;20466;-77
2023/09/27 02:10:10;;;;;;;3.77;2.50;;;23.20;72.60;;;;;;6185827;23;20005;-77
2023/09/27 02:12:37;;;;;;;5.43;2.33;;;23.20;72.70;;;;;;6185638;23;20335;-77
2023/09/27 02:15:06;;;;;;;4.80;2.28;;;23.20;72.90;;;;;;6185613;23;20004;-77
2023/09/27 02:17:32;;;;;;;2.75;2.00;;;23.20;73.00;;;;;;6184285;23;20001;-78
2023/09/27 02:19:57;;;;;;;6.78;2.72;;;23.20;72.90;;;;;;6185686;23;20012;-78
2023/09/27 02:22:23;;;;;;;4.43;2.45;;;23.20;73.10;;;;;;6185299;23;20423;-79
2023/09/27 02:24:49;;;;;;;3.05;2.40;;;23.10;73.40;;;;;;6185843;23;20470;-77
2023/09/27 02:27:19;;;;;;;3.30;2.35;;;23.10;73.40;;;;;;6185143;23;20005;-79
2023/09/27 02:29:45;;;;;;;3.83;2.40;;;23.10;73.30;;;;;;6183997;23;20032;-78
2023/09/27 02:32:11;;;;;;;3.03;2.15;;;23.10;73.20;;;;;;6185521;23;20420;-78
2023/09/27 02:34:36;;;;;;;3.10;2.20;;;23.10;73.50;;;;;;6186443;23;20001;-78
2023/09/27 02:37:03;;;;;;;2.72;1.80;;;23.10;73.50;;;;;;6184843;23;20001;-78
2023/09/27 02:39:29;;;;;;;3.13;2.40;;;23.00;73.40;;;;;;6186009;23;20005;-77
2023/09/27 02:41:57;;;;;;;3.58;2.33;;;23.00;73.50;;;;;;6185489;23;20079;-78
2023/09/27 02:44:23;;;;;;;3.65;2.03;;;23.00;73.50;;;;;;6185704;23;20159;-78
2023/09/27 02:46:52;;;;;;;3.60;1.90;;;23.00;73.70;;;;;;6185110;23;20013;-78
2023/09/27 02:49:19;;;;;;;6.18;2.30;;;23.00;73.70;;;;;;6185175;23;20036;-78
2023/09/27 02:51:47;;;;;;;4.53;2.10;;;23.00;74.00;;;;;;6185575;23;20386;-79
2023/09/27 02:54:16;;;;;;;4.47;2.35;;;22.90;73.70;;;;;;6186074;23;20009;-78
2023/09/27 02:56:45;;;;;;;3.50;2.53;;;22.90;73.50;;;;;;6185169;23;20051;-79
2023/09/27 02:59:11;;;;;;;2.78;2.05;;;22.90;73.80;;;;;;6185640;23;20059;-78
2023/09/27 03:01:40;;;;;;;6.95;2.05;;;22.80;73.70;;;;;;6185606;23;20005;-78
2023/09/27 03:04:10;;;;;;;4.85;2.63;;;22.80;73.70;;;;;;6185438;23;20009;-78
2023/09/27 03:06:37;;;;;;;6.25;2.50;;;22.70;73.70;;;;;;6185615;23;20001;-78
2023/09/27 03:09:04;;;;;;;2.90;2.15;;;22.70;73.90;;;;;;6185078;23;20005;-78
2023/09/27 03:11:30;;;;;;;5.05;2.35;;;22.70;73.90;;;;;;6185465;23;20320;-79
2023/09/27 03:13:56;;;;;;;3.42;2.65;;;22.70;73.90;;;;;;6182805;23;20024;-78
2023/09/27 03:16:21;;;;;;;5.97;2.63;;;22.70;74.10;;;;;;6184735;23;20071;-77
2023/09/27 03:18:47;;;;;;;3.42;2.42;;;22.70;74.30;;;;;;6184257;23;20001;-78
2023/09/27 03:21:13;;;;;;;5.22;2.22;;;22.70;74.10;;;;;;6185151;23;20001;-78
2023/09/27 03:23:39;;;;;;;4.63;2.20;;;22.70;74.10;;;;;;6184957;23;20028;-79
2023/09/27 03:26:05;;;;;;;4.20;2.40;;;22.70;74.10;;;;;;6184601;23;20450;-78
2023/09/27 03:28:31;;;;;;;5.45;2.28;;;22.70;74.10;;;;;;6184808;23;20076;-79
2023/09/27 03:30:57;;;;;;;4.43;2.38;;;22.70;73.90;;;;;;6184288;23;20088;-78
2023/09/27 03:33:22;;;;;;;4.28;2.10;;;22.70;73.90;;;;;;6185068;23;20024;-78
2023/09/27 03:35:48;;;;;;;3.50;2.05;;;22.60;73.80;;;;;;6185300;23;20404;-78
2023/09/27 03:38:14;;;;;;;4.53;2.53;;;22.60;73.70;;;;;;6183171;23;20550;-77
2023/09/27 03:40:40;;;;;;;3.75;2.20;;;22.60;73.50;;;;;;6184874;23;20341;-79
2023/09/27 03:43:06;;;;;;;3.22;1.98;;;22.60;73.40;;;;;;6184598;23;20029;-79
2023/09/27 03:45:34;;;;;;;2.97;2.13;;;22.60;73.40;;;;;;6185046;23;20001;-79
2023/09/27 03:47:59;;;;;;;3.50;2.00;;;22.60;73.50;;;;;;6183999;23;20063;-80
2023/09/27 03:50:25;;;;;;;2.78;2.28;;;22.60;73.70;;;;;;6184723;23;20044;-79
2023/09/27 03:52:56;;;;;;;3.92;2.13;;;22.50;73.70;;;;;;6184858;23;20388;-79
2023/09/27 03:55:25;;;;;;;7.18;2.28;;;22.50;73.70;;;;;;6184814;23;20005;-80
2023/09/27 03:57:51;;;;;;;2.90;2.10;;;22.50;73.30;;;;;;6184975;23;20001;-81
2023/09/27 04:00:18;;;;;;;4.55;2.58;;;22.40;73.30;;;;;;6185229;23;20001;-80
2023/09/27 04:02:44;;;;;;;2.83;1.95;;;22.40;73.40;;;;;;6185158;23;20009;-80
2023/09/27 04:05:11;;;;;;;5.90;2.10;;;22.30;73.50;;;;;;6184410;23;20005;-80
2023/09/27 04:07:37;;;;;;;3.85;2.40;;;22.30;73.70;;;;;;6184851;23;20008;-79
2023/09/27 04:10:03;;;;;;;3.65;2.60;;;22.20;73.90;;;;;;6184415;23;20005;-80
2023/09/27 04:12:30;;;;;;;2.88;2.08;;;22.10;74.20;;;;;;6185172;23;20066;-80
2023/09/27 04:14:56;;;;;;;5.10;2.42;;;22.10;74.60;;;;;;6184865;23;20001;-77
2023/09/27 04:17:22;;;;;;;6.47;2.35;;;22.10;75.00;;;;;;6183949;23;20009;-76
2023/09/27 04:19:52;;;;;;;3.88;2.75;;;22.00;75.10;;;;;;6184383;23;20028;-76
2023/09/27 04:22:18;;;;;;;5.45;2.38;;;22.00;75.30;;;;;;6184712;23;20084;-75
2023/09/27 04:24:44;;;;;;;3.20;2.03;;;22.00;75.50;;;;;;6183930;23;20001;-77
2023/09/27 04:27:09;;;;;;;3.90;2.38;;;21.90;75.60;;;;;;6182878;23;20135;-77
2023/09/27 04:29:35;;;;;;;3.40;2.50;;;21.90;75.80;;;;;;6181239;23;20005;-77
2023/09/27 04:32:01;;;;;;;3.33;2.47;;;21.90;76.00;;;;;;6183959;23;20064;-74
2023/09/27 04:34:28;;;;;;;5.72;2.97;;;21.80;75.90;;;;;;6184532;23;20064;-77
2023/09/27 04:36:53;;;;;;;6.57;2.40;;;21.80;76.30;;;;;;6184142;23;20004;-78
2023/09/27 04:39:20;;;;;;;3.58;2.20;;;21.80;76.40;;;;;;6182473;23;20005;-77
2023/09/27 04:41:47;;;;;;;6.03;2.60;;;21.70;76.30;;;;;;6181343;23;20398;-83
2023/09/27 04:44:13;;;;;;;7.03;2.53;;;21.70;76.40;;;;;;6182490;23;20004;-83
2023/09/27 04:46:39;;;;;;;4.88;2.67;;;21.70;76.60;;;;;;6183958;23;20507;-83
2023/09/27 04:49:05;;;;;;;4.03;2.70;;;21.70;76.70;;;;;;6185822;23;19997;-83
2023/09/27 04:51:31;;;;;;;7.63;2.80;;;21.70;76.90;;;;;;6185678;23;20380;-82
2023/09/27 04:54:03;;;;;;;7.15;2.80;;;21.70;77.10;;;;;;6185328;23;20072;-82
2023/09/27 04:56:30;;;;;;;5.15;2.45;;;21.70;77.20;;;;;;6185774;23;19997;-81
2023/09/27 04:59:01;;;;;;;6.07;2.78;;;21.80;77.30;;;;;;6186682;23;20004;-81
2023/09/27 05:01:27;;;;;;;5.88;2.83;;;21.70;77.00;;;;;;6185346;23;20293;-79
2023/09/27 05:03:53;;;;;;;6.15;2.70;;;21.80;77.30;;;;;;6185825;23;20009;-81
2023/09/27 05:06:20;;;;;;;3.58;2.65;;;21.70;77.30;;;;;;6185899;23;20001;-84
2023/09/27 05:08:45;;;;;;;7.55;3.35;;;21.80;77.40;;;;;;6186797;23;20396;-83
2023/09/27 05:11:11;;;;;;;4.30;2.75;;;21.70;77.20;;;;;;6184130;23;20008;-87
2023/09/27 05:13:37;;;;;;;4.10;2.50;;;21.70;77.20;;;;;;6184528;23;19997;-86
2023/09/27 05:16:03;;;;;;;6.40;2.38;;;21.70;77.40;;;;;;6183123;23;20009;-87
2023/09/27 05:18:29;;;;;;;8.85;3.03;;;21.70;77.30;;;;;;6185686;23;20482;-88
2023/09/27 05:20:55;;;;;;;6.78;2.92;;;21.70;77.20;;;;;;6184981;23;20004;-87
2023/09/27 05:23:20;;;;;;;4.15;2.78;;;21.70;77.20;;;;;;6184045;23;20013;-86
2023/09/27 05:25:47;;;;;;;6.45;2.30;;;21.60;77.80;;;;;;6181399;23;20324;-87
2023/09/27 05:28:12;;;;;;;3.90;2.72;;;21.60;77.20;;;;;;6186148;23;20001;-89
2023/09/27 05:30:38;;;;;;;5.63;2.83;;;21.60;77.40;;;;;;6186566;23;20013;-90
2023/09/27 05:33:07;;;;;;;4.13;2.50;;;21.60;77.60;;;;;;6185551;23;19997;-76
2023/09/27 05:35:33;;;;;;;8.50;3.20;;;21.60;77.60;;;;;;6184207;23;20494;-76
2023/09/27 05:37:59;;;;;;;4.57;2.63;;;21.60;77.60;;;;;;6185128;23;19996;-76
2023/09/27 05:40:24;;;;;;;5.47;2.75;;;21.70;77.80;;;;;;6185867;23;20332;-77
2023/09/27 05:42:50;;;;;;;3.85;2.55;;;21.70;77.80;;;;;;6185782;23;20078;-77
2023/09/27 05:45:16;;;;;;;3.83;2.80;;;21.70;78.30;;;;;;6184254;23;20012;-76
2023/09/27 05:47:43;;;;;;;3.35;2.47;;;21.70;78.20;;;;;;6185845;23;20009;-76
2023/09/27 05:50:11;;;;;;;6.22;2.95;;;21.70;78.20;;;;;;6185554;23;20039;-77
2023/09/27 05:52:37;;;;;;;5.97;2.70;;;21.70;78.50;;;;;;6185868;23;20059;-76
2023/09/27 05:55:06;;;;;;;7.57;2.40;;;21.80;78.20;;;;;;6185770;23;20463;-76
2023/09/27 05:57:33;;;;;;;10.65;2.97;;;21.80;78.30;;;;;;6185109;23;19997;-76
2023/09/27 05:59:59;;;;;;;9.90;2.40;;;21.80;78.80;;;;;;6186281;23;20005;-76
2023/09/27 06:02:31;;;;;;;7.57;2.40;;;21.80;78.20;;;;;;6185795;23;20087;-77
2023/09/27 06:04:58;;;;;;;6.82;2.40;;;21.80;77.60;;;;;;6185949;23;20088;-88
2023/09/27 06:07:23;;;;;;;6.90;2.53;;;21.90;77.40;;;;;;6186064;23;20001;-88
2023/09/27 06:09:50;;;;;;;5.22;2.38;;;21.90;77.20;;;;;;6186285;23;20032;-86
2023/09/27 06:12:16;;;;;;;5.05;2.15;;;21.90;77.40;;;;;;6186400;23;20305;-87
2023/09/27 06:14:43;;;;;;;3.65;2.63;;;22.00;77.80;;;;;;6186192;23;20029;-85
2023/09/27 06:17:10;;;;;;;5.80;2.70;;;22.00;78.20;;;;;;6185954;23;20382;-88
2023/09/27 06:19:36;;;;;;;6.90;2.53;;;22.10;77.20;;;;;;6186882;23;20005;-89
2023/09/27 06:22:06;;;;;;;8.75;2.47;;;22.00;76.80;;;;;;6187082;23;20008;-89
2023/09/27 06:24:32;;;;;;;6.72;2.10;;;22.10;76.60;;;;;;6189337;23;20001;-87
2023/09/27 06:26:58;;;;;;;9.48;3.17;;;22.10;76.30;;;;;;6188739;23;20016;-89
2023/09/27 06:29:24;;;;;;;4.72;2.22;;;22.10;76.10;;;;;;6191045;23;20016;-89
2023/09/27 06:31:50;;;;;;;6.65;2.80;;;22.10;76.40;;;;;;6185916;23;20040;-89
2023/09/27 06:34:17;;;;;;;9.27;2.08;;;22.20;76.30;;;;;;6187942;23;20000;-89
2023/09/27 06:36:43;;;;;;;4.68;2.38;;;22.20;76.40;;;;;;6188425;23;20001;-89
2023/09/27 06:39:15;;;;;;;4.40;2.17;;;22.30;76.50;;;;;;6187580;23;20001;-88
2023/09/27 06:41:42;;;;;;;6.30;2.35;;;22.30;75.90;;;;;;6188590;23;20004;-90
2023/09/27 06:44:08;;;;;;;4.38;2.13;;;22.30;75.90;;;;;;6188045;23;19997;-88
2023/09/27 06:46:36;;;;;;;4.72;2.42;;;22.40;75.40;;;;;;6189817;23;20004;-89
2023/09/27 06:49:03;;;;;;;10.50;2.00;;;22.40;75.30;;;;;;6189670;23;20004;-89
2023/09/27 06:51:29;;;;;;;2.97;2.15;;;22.40;75.40;;;;;;6188473;23;20001;-88
2023/09/27 06:53:55;;;;;;;4.38;2.42;;;22.40;75.90;;;;;;6188023;23;20084;-89
2023/09/27 06:56:22;;;;;;;7.25;2.67;;;22.50;76.10;;;;;;6188755;23;20032;-89
2023/09/27 06:58:49;;;;;;;3.70;2.28;;;22.60;75.80;;;;;;6188117;23;20420;-89
2023/09/27 07:01:15;;;;;;;3.17;2.20;;;22.60;76.00;;;;;;6187916;23;20001;-89
2023/09/27 07:03:41;;;;;;;10.05;2.10;;;22.70;75.70;;;;;;6188135;23;20009;-89
2023/09/27 07:06:06;;;;;;;7.13;2.42;;;22.70;75.50;;;;;;6187886;23;20015;-89
2023/09/27 07:08:33;;;;;;;3.75;1.80;;;22.70;75.20;;;;;;6188041;23;20005;-78
2023/09/27 07:11:05;;;;;;;4.22;1.88;;;22.80;75.60;;;;;;6183967;23;20092;-78
2023/09/27 07:13:32;;;;;;;4.90;2.22;;;22.80;76.10;;;;;;6186025;23;20001;-78
2023/09/27 07:15:59;;;;;;;6.07;2.40;;;22.90;75.80;;;;;;6186060;23;20004;-78
2023/09/27 07:18:25;;;;;;;5.00;1.90;;;22.90;75.70;;;;;;6185368;23;20068;-77
2023/09/27 07:20:52;;;;;;;5.60;2.38;;;22.90;75.20;;;;;;6186265;23;20067;-77
2023/09/27 07:23:18;;;;;;;3.95;2.03;;;23.00;75.40;;;;;;6186268;23;20005;-78
2023/09/27 07:25:44;;;;;;;4.25;2.17;;;23.10;75.10;;;;;;6186422;23;20027;-77
2023/09/27 07:28:11;;;;;;;4.20;2.00;;;23.20;73.90;;;;;;6185436;23;20005;-77
2023/09/27 07:30:37;;;;;;;13.05;2.22;;;23.20;74.20;;;;;;6186436;23;20340;-76
2023/09/27 07:33:10;;;;;;;5.05;1.70;;;23.30;74.30;;;;;;6187367;23;19997;-87
2023/09/27 07:35:41;;;;;;;5.93;2.30;;;23.40;74.30;;;;;;6190012;23;20527;-88
2023/09/27 07:38:08;;;;;;;3.72;2.00;;;23.50;74.00;;;;;;6188115;23;20009;-87
2023/09/27 07:40:34;;;;;;;9.20;2.28;;;23.60;74.20;;;;;;6187883;23;20383;-88
2023/09/27 07:43:02;;;;;;;8.77;1.98;;;23.70;73.60;;;;;;6189206;23;20068;-86
2023/09/27 07:45:31;;;;;;;7.57;2.58;;;23.80;72.90;;;;;;6188653;23;20005;-86
2023/09/27 07:47:59;;;;;;;6.88;2.33;;;23.90;71.50;;;;;;6188095;23;20011;-87
2023/09/27 07:50:28;;;;;;;8.80;2.22;;;24.00;71.80;;;;;;6188782;23;20005;-88
2023/09/27 07:53:06;;;;;;;3.50;2.03;;;24.10;71.80;;;;;;6189123;23;20001;-87
2023/09/27 07:55:32;;;;;;;4.80;1.90;;;24.20;71.10;;;;;;6188944;23;20446;-88
2023/09/27 07:57:58;;;;;;;4.53;2.00;;;24.20;71.50;;;;;;6185637;23;20377;-77
2023/09/27 08:00:29;;;;;;;7.13;1.92;;;24.40;71.20;;;;;;6185694;23;20088;-77
2023/09/27 08:02:57;;;;;;;6.38;2.35;;;24.50;70.90;;;;;;6184760;23;20431;-77
2023/09/27 08:05:23;;;;;;;6.07;2.28;;;24.60;71.30;;;;;;6186271;23;20005;-79
2023/09/27 08:07:50;;;;;;;7.07;2.55;;;24.70;70.60;;;;;;6186268;23;20368;-78
2023/09/27 08:10:17;;;;;;;9.10;2.67;;;24.80;70.80;;;;;;6186023;23;20408;-78
2023/09/27 08:12:43;;;;;;;6.85;2.33;;;24.90;70.30;;;;;;6186485;23;20120;-77
2023/09/27 08:15:12;;;;;;;5.57;2.05;;;25.00;70.90;;;;;;6185919;23;20001;-77
2023/09/27 08:17:38;;;;;;;5.38;2.40;;;25.20;69.30;;;;;;6185991;23;20072;-78
2023/09/27 08:20:09;;;;;;;4.07;2.50;;;25.30;69.70;;;;;;6186174;23;20035;-77
2023/09/27 08:22:36;;;;;;;3.35;2.20;;;25.40;69.60;;;;;;6187248;23;20005;-78
2023/09/27 08:25:04;;;;;;;7.00;2.10;;;25.50;69.50;;;;;;6186665;23;20009;-77
2023/09/27 08:27:30;;;;;;;5.57;2.05;;;25.70;68.60;;;;;;6187901;23;20005;-77
2023/09/27 08:29:56;;;;;;;5.90;1.92;;;25.80;68.20;;;;;;6187721;23;20012;-78
2023/09/27 08:32:22;;;;;;;4.55;1.75;;;25.90;67.80;;;;;;6188130;23;20009;-78
2023/09/27 08:34:48;;;;;;;4.63;2.22;;;26.00;67.70;;;;;;6188213;23;20001;-77
2023/09/27 08:37:14;;;;;;;3.88;2.17;;;26.10;67.50;;;;;;6187468;23;20001;-77
2023/09/27 08:39:41;;;;;;;5.30;2.20;;;26.30;66.70;;;;;;6187451;23;20032;-77
2023/09/27 08:42:07;;;;;;;3.90;1.90;;;26.30;65.50;;;;;;6187311;23;20012;-88
2023/09/27 08:44:34;;;;;;;4.82;1.92;;;26.40;66.10;;;;;;6189969;23;20024;-86
2023/09/27 08:47:00;;;;;;;3.97;2.30;;;26.50;66.10;;;;;;6189045;23;20005;-86
2023/09/27 08:49:26;;;;;;;3.33;2.08;;;26.60;65.90;;;;;;6190264;23;20086;-86
2023/09/27 08:51:53;;;;;;;4.05;1.90;;;26.70;65.70;;;;;;6191670;23;20001;-87
2023/09/27 08:54:21;;;;;;;4.13;2.08;;;26.70;64.50;;;;;;6192060;23;20336;-86
2023/09/27 08:56:50;;;;;;;2.40;2.00;;;26.80;64.80;;;;;;6195551;23;20003;-87
2023/09/27 08:59:18;;;;;;;5.72;2.17;;;26.90;64.70;;;;;;6195453;23;19997;-86
2023/09/27 09:01:44;;;;;;;4.22;1.98;;;27.00;65.10;;;;;;6193287;23;20443;-87
2023/09/27 09:04:11;;;;;;;2.65;1.85;;;27.10;64.10;;;;;;6189729;23;20005;-88
2023/09/27 09:06:38;;;;;;;6.55;2.05;;;27.20;64.00;;;;;;6191935;23;19998;-88
2023/09/27 09:09:10;;;;;;;3.67;2.20;;;27.30;64.40;;;;;;6194966;23;20055;-88
2023/09/27 09:11:47;;;;;;;2.70;2.10;;;27.50;64.60;;;;;;6193037;23;20335;-87
2023/09/27 09:14:17;;;;;;;5.15;2.17;;;27.70;63.10;;;;;;6191722;23;20005;-88
2023/09/27 09:16:50;;;;;;;6.90;2.30;;;27.70;61.90;;;;;;6192018;23;20001;-87
2023/09/27 09:19:22;;;;;;;4.88;2.15;;;27.80;60.90;;;;;;6194101;23;20001;-87
2023/09/27 09:22:00;;;;;;;4.40;2.33;;;27.80;60.50;;;;;;6193230;23;19997;-87
2023/09/27 09:24:26;;;;;;;5.22;2.05;;;27.90;59.10;;;;;;6192951;23;20067;-87
2023/09/27 09:27:16;;;;;;;4.47;2.20;;;28.00;60.50;;;;;;6193284;23;19997;-86
2023/09/27 09:29:50;;;;;;;9.45;1.95;;;28.10;60.40;;;;;;6194345;23;20083;-89
2023/09/27 09:32:18;;;;;;;3.65;1.85;;;28.30;60.20;;;;;;6193784;23;20016;-88
2023/09/27 09:34:49;;;;;;;11.30;2.58;;;28.40;59.80;;;;;;6194490;23;19997;-87
2023/09/27 09:37:33;;;;;;;4.57;1.95;;;28.50;57.40;;;;;;6196918;23;20076;-87
2023/09/27 09:40:14;;;;;;;5.25;2.03;;;28.60;58.80;;;;;;6193954;23;20035;-87
2023/09/27 09:42:41;;;;;;;5.75;1.98;;;28.80;58.00;;;;;;6193555;23;20420;-88
2023/09/27 09:45:10;;;;;;;5.13;1.67;;;28.90;57.80;;;;;;6195151;23;20005;-86
2023/09/27 09:47:37;;;;;;;2.85;2.13;;;29.00;56.90;;;;;;6195423;23;20085;-88
2023/09/27 09:50:16;;;;;;;6.05;2.22;;;29.00;57.10;;;;;;6192141;23;20040;-86
2023/09/27 09:52:57;;;;;;;4.40;1.63;;;29.10;56.00;;;;;;6188619;23;20449;-88
2023/09/27 09:55:29;;;;;;;3.17;2.20;;;29.20;57.00;;;;;;6187902;23;20671;-78
2023/09/27 09:58:16;;;;;;;4.90;1.80;;;29.30;57.30;;;;;;6186632;23;20047;-78
2023/09/27 10:00:49;;;;;;;6.72;2.10;;;29.40;57.40;;;;;;6186451;23;20009;-78
2023/09/27 10:03:20;;;;;;;4.28;1.80;;;29.60;56.90;;;;;;6186262;23;20028;-78
2023/09/27 10:05:50;;;;;;;11.63;2.10;;;29.70;57.00;;;;;;6184782;23;20008;-77
2023/09/27 10:08:18;;;;;;;2.65;2.05;;;29.80;56.50;;;;;;6183164;23;20020;-78
2023/09/27 10:10:44;;;;;;;7.97;2.28;;;29.90;55.90;;;;;;6186516;23;20012;-77
2023/09/27 10:13:10;;;;;;;6.75;1.85;;;30.00;56.20;;;;;;6186510;23;20004;-77
2023/09/27 10:15:38;;;;;;;8.18;2.30;;;30.10;54.70;;;;;;6186477;23;20423;-77
2023/09/27 10:18:22;;;;;;;7.47;2.25;;;30.20;54.30;;;;;;6184620;23;20008;-78
2023/09/27 10:21:07;;;;;;;3.97;1.85;;;30.30;55.50;;;;;;6186504;23;20009;-78
2023/09/27 10:23:37;;;;;;;5.45;2.13;;;30.40;54.20;;;;;;6185050;23;20312;-78
2023/09/27 10:26:32;;;;;;;7.60;2.20;;;30.50;54.00;;;;;;6186030;23;20004;-78
2023/09/27 10:29:03;;;;;;;7.35;2.50;;;30.60;54.00;;;;;;6186652;23;20029;-77
2023/09/27 10:31:58;;;;;;;4.25;1.80;;;30.80;54.10;;;;;;6186024;23;20020;-82
2023/09/27 10:34:33;;;;;;;3.55;2.00;;;30.90;54.10;;;;;;6185959;23;20024;-77
2023/09/27 10:37:00;;;;;;;6.53;2.25;;;31.00;54.00;;;;;;6186627;23;19997;-78
2023/09/27 10:39:26;;;;;;;7.85;2.25;;;31.10;53.90;;;;;;6186365;23;20080;-79
2023/09/27 10:41:53;;;;;;;9.20;2.78;;;31.20;54.10;;;;;;6186287;23;20001;-77
2023/09/27 10:44:33;;;;;;;3.05;2.20;;;31.30;52.90;;;;;;6186125;23;20001;-78
2023/09/27 10:46:59;;;;;;;;;;;31.50;51.80;;;;;;6186999;23;20407;-77
2023/09/27 10:49:27;;;;;;;5.10;2.07;;;31.60;52.00;;;;;;6185932;23;19951;-78
2023/09/27 10:51:54;;;;;;;3.60;2.10;;;31.80;53.20;;;;;;6185702;23;20002;-78
2023/09/27 10:54:24;;;;;;;6.32;2.28;;;31.90;52.60;;;;;;6185098;23;20005;-78
2023/09/27 10:56:55;;;;;;;4.07;1.95;;;32.00;51.60;;;;;;6184045;23;20068;-78
2023/09/27 10:59:28;;;;;;;12.57;3.15;;;32.10;51.50;;;;;;6185913;23;20092;-78
2023/09/27 11:02:02;;;;;;;4.43;2.10;;;32.20;51.60;;;;;;6185612;23;20001;-78
2023/09/27 11:04:29;;;;;;;8.05;2.40;;;32.30;51.30;;;;;;6185259;23;20025;-77
2023/09/27 11:06:56;;;;;;;6.65;2.67;;;32.40;51.50;;;;;;6180410;23;20001;-78
2023/09/27 11:09:23;;;;;;;8.20;2.40;;;32.50;49.80;;;;;;6182282;23;20141;-79
2023/09/27 11:11:51;;;;;;;6.20;2.72;;;32.60;50.20;;;;;;6185577;23;20084;-78
2023/09/27 11:14:32;;;;;;;4.95;2.15;;;32.70;50.50;;;;;;6181044;23;20031;-78
2023/09/27 11:17:25;;;;;;;5.13;2.30;;;32.90;50.60;;;;;;6184871;23;20024;-78
2023/09/27 11:19:51;;;;;;;9.40;2.42;;;33.00;50.20;;;;;;6186136;23;20469;-78
2023/09/27 11:22:25;;;;;;;6.15;2.60;;;33.10;51.00;;;;;;6186075;23;20029;-77
2023/09/27 11:24:50;;;;;;;6.07;2.88;;;33.30;50.80;;;;;;6184298;23;20012;-88
2023/09/27 11:27:19;;;;;;;4.50;2.33;;;33.30;49.00;;;;;;6187166;23;20001;-87
2023/09/27 11:32:23;;;;;;;6.55;2.25;;;33.60;50.00;;;;;;6180095;23;20358;-82
2023/09/27 11:34:58;;;;;;;9.77;2.53;;;33.90;49.40;;;;;;6179001;23;20470;-81
2023/09/27 11:37:25;;;;;;;8.20;2.38;;;33.90;48.40;;;;;;6183353;23;20076;-81
2023/09/27 11:39:54;;;;;;;5.85;2.40;;;34.10;49.20;;;;;;6182263;23;20009;-81
2023/09/27 11:42:25;;;;;;;3.75;1.85;;;34.30;48.80;;;;;;6183986;23;20088;-82
2023/09/27 11:45:05;;;;;;;4.05;2.03;;;34.50;49.00;;;;;;6184635;23;20059;-86
2023/09/27 11:47:44;;;;;;;6.63;2.15;;;34.70;47.50;;;;;;6184263;23;20541;-81
2023/09/27 11:50:10;;;;;;;5.22;2.10;;;34.80;47.90;;;;;;6181072;23;20016;-82
2023/09/27 11:52:35;;;;;;;10.20;2.05;;;34.90;47.40;;;;;;6183089;23;19994;-82
2023/09/27 11:55:03;;;;;;;13.50;2.63;;;35.00;47.10;;;;;;6183083;23;20001;-81
2023/09/27 11:57:29;;;;;;;6.90;2.15;;;35.10;46.10;;;;;;6185274;23;20009;-88
2023/09/27 11:59:54;;;;;;;20.52;2.75;;;35.20;46.80;;;;;;6184802;23;20005;-89
2023/09/27 12:02:21;;;;;;;6.97;2.28;;;35.40;45.40;;;;;;6182609;23;20017;-81
2023/09/27 12:04:47;;;;;;;7.30;2.35;;;35.50;45.70;;;;;;6182573;23;20005;-81
2023/09/27 12:07:13;;;;;;;4.93;2.45;;;35.60;46.00;;;;;;6182508;23;20071;-81
2023/09/27 12:09:38;;;;;;;5.25;2.55;;;35.70;45.30;;;;;;6186591;23;20005;-88
2023/09/27 12:12:04;;;;;;;6.35;2.00;;;35.70;45.40;;;;;;6187644;23;20070;-88
2023/09/27 12:14:30;;;;;;;9.13;2.38;;;35.80;45.60;;;;;;6187666;23;20001;-89
2023/09/27 12:16:56;;;;;;;8.07;2.25;;;35.90;42.80;;;;;;6187185;23;20024;-89
2023/09/27 12:19:21;;;;;;;6.95;2.50;;;35.90;44.00;;;;;;6187716;23;20424;-89
2023/09/27 12:21:47;;;;;;;6.03;2.58;;;35.80;44.40;;;;;;6187238;23;20453;-89
2023/09/27 12:24:12;;;;;;;6.35;2.33;;;35.90;44.80;;;;;;6187469;23;20327;-89
2023/09/27 12:26:38;;;;;;;5.57;2.30;;;35.90;43.70;;;;;;6185478;23;20009;-88
2023/09/27 12:29:04;;;;;;;3.65;2.28;;;35.90;44.20;;;;;;6186283;23;20339;-89
2023/09/27 12:31:30;;;;;;;6.68;2.20;;;35.90;44.20;;;;;;6188186;23;20020;-89
2023/09/27 12:33:56;;;;;;;8.82;2.47;;;35.90;43.90;;;;;;6187946;23;20005;-88
2023/09/27 12:36:22;;;;;;;5.50;1.95;;;35.90;43.40;;;;;;6187883;23;20415;-88
2023/09/27 12:38:47;;;;;;;6.53;2.40;;;35.90;43.70;;;;;;6187822;23;20446;-88
2023/09/27 12:41:13;;;;;;;5.90;2.35;;;35.80;43.10;;;;;;6188188;23;20312;-88
2023/09/27 12:43:40;;;;;;;5.93;2.40;;;35.80;43.20;;;;;;6188146;23;20004;-89
2023/09/27 12:46:06;;;;;;;8.27;2.50;;;35.80;43.60;;;;;;6186195;23;20009;-89
2023/09/27 12:48:32;;;;;;;5.65;2.55;;;35.70;43.40;;;;;;6187769;23;20001;-89
2023/09/27 12:50:58;;;;;;;5.60;2.53;;;35.60;42.60;;;;;;6187856;23;20482;-87
2023/09/27 12:53:23;;;;;;;16.13;2.60;;;35.50;43.00;;;;;;6187332;23;20424;-89